sensor_id;sensor_type;location;lat;lon;timestamp;P1;durP1;ratioP1;P2;durP2;ratioP2
52208;SDS011;38507;53.132;6.394;2023-05-07T00:02:21;22.13;;;17.35;;
52208;SDS011;38507;53.132;6.394;2023-05-07T00:04:47;23.15;;;16.63;;
52208;SDS011;38507;53.132;6.394;2023-05-07T00:07:13;24.55;;;17.60;;
52208;SDS011;38507;53.132;6.394;2023-05-07T00:09:39;30.25;;;18.30;;
52208;SDS011;38507;53.132;6.394;2023-05-07T00:12:05;22.05;;;17.35;;
52208;SDS011;38507;53.132;6.394;2023-05-07T00:14:31;21.40;;;16.55;;
52208;SDS011;38507;53.132;6.394;2023-05-07T00:16:57;24.42;;;17.33;;
52208;SDS011;38507;53.132;6.394;2023-05-07T00:19:22;23.17;;;17.48;;
52208;SDS011;38507;53.132;6.394;2023-05-07T00:21:48;26.90;;;17.75;;
52208;SDS011;38507;53.132;6.394;2023-05-07T00:24:14;24.15;;;17.45;;
52208;SDS011;38507;53.132;6.394;2023-05-07T00:26:39;25.00;;;17.88;;
52208;SDS011;38507;53.132;6.394;2023-05-07T00:29:05;24.55;;;17.30;;
52208;SDS011;38507;53.132;6.394;2023-05-07T00:31:30;27.77;;;17.60;;
52208;SDS011;38507;53.132;6.394;2023-05-07T00:33:56;27.30;;;17.35;;
52208;SDS011;38507;53.132;6.394;2023-05-07T00:36:22;19.83;;;16.95;;
52208;SDS011;38507;53.132;6.394;2023-05-07T00:38:47;24.05;;;17.05;;
52208;SDS011;38507;53.132;6.394;2023-05-07T00:41:13;27.92;;;18.42;;
52208;SDS011;38507;53.132;6.394;2023-05-07T00:43:38;24.08;;;18.08;;
52208;SDS011;38507;53.132;6.394;2023-05-07T00:46:04;20.35;;;17.13;;
52208;SDS011;38507;53.132;6.394;2023-05-07T00:48:30;24.42;;;18.42;;
52208;SDS011;38507;53.132;6.394;2023-05-07T00:50:56;26.77;;;19.02;;
52208;SDS011;38507;53.132;6.394;2023-05-07T00:53:22;21.55;;;16.67;;
52208;SDS011;38507;53.132;6.394;2023-05-07T00:55:48;24.30;;;17.95;;
52208;SDS011;38507;53.132;6.394;2023-05-07T00:58:14;24.20;;;18.27;;
52208;SDS011;38507;53.132;6.394;2023-05-07T01:00:40;27.23;;;19.13;;
52208;SDS011;38507;53.132;6.394;2023-05-07T01:03:05;26.10;;;18.77;;
52208;SDS011;38507;53.132;6.394;2023-05-07T01:05:31;28.67;;;19.02;;
52208;SDS011;38507;53.132;6.394;2023-05-07T01:07:57;28.48;;;19.15;;
52208;SDS011;38507;53.132;6.394;2023-05-07T01:10:24;25.17;;;19.17;;
52208;SDS011;38507;53.132;6.394;2023-05-07T01:12:49;25.42;;;18.27;;
52208;SDS011;38507;53.132;6.394;2023-05-07T01:15:16;23.70;;;17.40;;
52208;SDS011;38507;53.132;6.394;2023-05-07T01:17:42;27.73;;;19.05;;
52208;SDS011;38507;53.132;6.394;2023-05-07T01:20:09;28.58;;;19.60;;
52208;SDS011;38507;53.132;6.394;2023-05-07T01:22:36;26.33;;;19.70;;
52208;SDS011;38507;53.132;6.394;2023-05-07T01:25:06;26.35;;;18.63;;
52208;SDS011;38507;53.132;6.394;2023-05-07T01:27:33;26.05;;;18.80;;
52208;SDS011;38507;53.132;6.394;2023-05-07T01:30:00;27.95;;;20.20;;
52208;SDS011;38507;53.132;6.394;2023-05-07T01:32:37;24.25;;;19.10;;
52208;SDS011;38507;53.132;6.394;2023-05-07T01:35:17;27.08;;;19.13;;
52208;SDS011;38507;53.132;6.394;2023-05-07T01:37:45;28.77;;;20.13;;
52208;SDS011;38507;53.132;6.394;2023-05-07T01:40:12;26.20;;;19.80;;
52208;SDS011;38507;53.132;6.394;2023-05-07T01:42:38;26.77;;;19.17;;
52208;SDS011;38507;53.132;6.394;2023-05-07T01:45:06;28.73;;;19.05;;
52208;SDS011;38507;53.132;6.394;2023-05-07T01:47:32;28.92;;;20.90;;
52208;SDS011;38507;53.132;6.394;2023-05-07T01:49:58;24.85;;;18.80;;
52208;SDS011;38507;53.132;6.394;2023-05-07T01:52:24;27.17;;;19.75;;
52208;SDS011;38507;53.132;6.394;2023-05-07T01:54:50;26.02;;;19.92;;
52208;SDS011;38507;53.132;6.394;2023-05-07T01:57:15;28.42;;;20.70;;
52208;SDS011;38507;53.132;6.394;2023-05-07T01:59:41;30.02;;;20.42;;
52208;SDS011;38507;53.132;6.394;2023-05-07T02:02:07;26.35;;;19.75;;
52208;SDS011;38507;53.132;6.394;2023-05-07T02:04:32;27.38;;;21.42;;
52208;SDS011;38507;53.132;6.394;2023-05-07T02:06:58;29.85;;;21.10;;
52208;SDS011;38507;53.132;6.394;2023-05-07T02:09:23;33.15;;;22.73;;
52208;SDS011;38507;53.132;6.394;2023-05-07T02:11:49;29.05;;;20.92;;
52208;SDS011;38507;53.132;6.394;2023-05-07T02:14:15;32.47;;;22.33;;
52208;SDS011;38507;53.132;6.394;2023-05-07T02:16:40;27.92;;;21.02;;
52208;SDS011;38507;53.132;6.394;2023-05-07T02:19:06;27.33;;;21.77;;
52208;SDS011;38507;53.132;6.394;2023-05-07T02:21:32;27.20;;;21.52;;
52208;SDS011;38507;53.132;6.394;2023-05-07T02:23:58;35.35;;;23.35;;
52208;SDS011;38507;53.132;6.394;2023-05-07T02:26:23;28.67;;;21.90;;
52208;SDS011;38507;53.132;6.394;2023-05-07T02:28:49;31.70;;;23.52;;
52208;SDS011;38507;53.132;6.394;2023-05-07T02:31:15;30.60;;;22.75;;
52208;SDS011;38507;53.132;6.394;2023-05-07T02:33:41;32.70;;;23.38;;
52208;SDS011;38507;53.132;6.394;2023-05-07T02:36:10;36.00;;;24.95;;
52208;SDS011;38507;53.132;6.394;2023-05-07T02:38:36;30.40;;;23.15;;
52208;SDS011;38507;53.132;6.394;2023-05-07T02:41:02;31.95;;;24.70;;
52208;SDS011;38507;53.132;6.394;2023-05-07T02:43:28;35.70;;;23.20;;
52208;SDS011;38507;53.132;6.394;2023-05-07T02:46:03;32.47;;;23.38;;
52208;SDS011;38507;53.132;6.394;2023-05-07T02:48:30;36.58;;;23.02;;
52208;SDS011;38507;53.132;6.394;2023-05-07T02:50:56;32.83;;;24.77;;
52208;SDS011;38507;53.132;6.394;2023-05-07T02:53:22;33.97;;;24.70;;
52208;SDS011;38507;53.132;6.394;2023-05-07T02:55:47;33.17;;;23.67;;
52208;SDS011;38507;53.132;6.394;2023-05-07T02:58:13;32.65;;;24.60;;
52208;SDS011;38507;53.132;6.394;2023-05-07T03:00:38;36.00;;;25.75;;
52208;SDS011;38507;53.132;6.394;2023-05-07T03:03:05;33.67;;;24.35;;
52208;SDS011;38507;53.132;6.394;2023-05-07T03:05:30;38.40;;;26.20;;
52208;SDS011;38507;53.132;6.394;2023-05-07T03:07:56;36.55;;;26.63;;
52208;SDS011;38507;53.132;6.394;2023-05-07T03:10:22;35.80;;;25.70;;
52208;SDS011;38507;53.132;6.394;2023-05-07T03:12:47;40.42;;;26.55;;
52208;SDS011;38507;53.132;6.394;2023-05-07T03:15:13;36.95;;;25.70;;
52208;SDS011;38507;53.132;6.394;2023-05-07T03:17:39;36.30;;;26.85;;
52208;SDS011;38507;53.132;6.394;2023-05-07T03:20:05;37.13;;;26.13;;
52208;SDS011;38507;53.132;6.394;2023-05-07T03:22:31;42.00;;;27.42;;
52208;SDS011;38507;53.132;6.394;2023-05-07T03:24:57;39.88;;;25.70;;
52208;SDS011;38507;53.132;6.394;2023-05-07T03:27:23;35.85;;;25.05;;
52208;SDS011;38507;53.132;6.394;2023-05-07T03:29:49;38.70;;;25.83;;
52208;SDS011;38507;53.132;6.394;2023-05-07T03:32:14;39.75;;;27.58;;
52208;SDS011;38507;53.132;6.394;2023-05-07T03:34:40;41.78;;;27.95;;
52208;SDS011;38507;53.132;6.394;2023-05-07T03:37:06;40.97;;;27.55;;
52208;SDS011;38507;53.132;6.394;2023-05-07T03:39:31;38.97;;;26.77;;
52208;SDS011;38507;53.132;6.394;2023-05-07T03:41:57;41.70;;;27.73;;
52208;SDS011;38507;53.132;6.394;2023-05-07T03:44:23;38.55;;;26.88;;
52208;SDS011;38507;53.132;6.394;2023-05-07T03:46:49;42.80;;;27.30;;
52208;SDS011;38507;53.132;6.394;2023-05-07T03:49:14;41.63;;;27.98;;
52208;SDS011;38507;53.132;6.394;2023-05-07T03:51:40;44.58;;;27.90;;
52208;SDS011;38507;53.132;6.394;2023-05-07T03:54:06;42.03;;;27.70;;
52208;SDS011;38507;53.132;6.394;2023-05-07T03:56:32;43.35;;;27.80;;
52208;SDS011;38507;53.132;6.394;2023-05-07T03:58:57;44.33;;;27.83;;
52208;SDS011;38507;53.132;6.394;2023-05-07T04:01:23;40.65;;;27.50;;
52208;SDS011;38507;53.132;6.394;2023-05-07T04:03:49;44.75;;;29.63;;
52208;SDS011;38507;53.132;6.394;2023-05-07T04:06:15;45.85;;;29.08;;
52208;SDS011;38507;53.132;6.394;2023-05-07T04:08:42;46.15;;;30.77;;
52208;SDS011;38507;53.132;6.394;2023-05-07T04:11:08;47.38;;;29.70;;
52208;SDS011;38507;53.132;6.394;2023-05-07T04:13:34;43.08;;;28.00;;
52208;SDS011;38507;53.132;6.394;2023-05-07T04:16:00;45.10;;;27.73;;
52208;SDS011;38507;53.132;6.394;2023-05-07T04:18:27;45.83;;;28.55;;
52208;SDS011;38507;53.132;6.394;2023-05-07T04:20:53;43.63;;;28.90;;
52208;SDS011;38507;53.132;6.394;2023-05-07T04:23:19;42.70;;;29.50;;
52208;SDS011;38507;53.132;6.394;2023-05-07T04:25:44;48.67;;;29.17;;
52208;SDS011;38507;53.132;6.394;2023-05-07T04:28:10;43.42;;;28.88;;
52208;SDS011;38507;53.132;6.394;2023-05-07T04:30:36;41.30;;;28.33;;
52208;SDS011;38507;53.132;6.394;2023-05-07T04:33:02;45.22;;;29.67;;
52208;SDS011;38507;53.132;6.394;2023-05-07T04:35:28;42.33;;;28.88;;
52208;SDS011;38507;53.132;6.394;2023-05-07T04:37:53;46.65;;;29.17;;
52208;SDS011;38507;53.132;6.394;2023-05-07T04:40:19;40.55;;;28.75;;
52208;SDS011;38507;53.132;6.394;2023-05-07T04:42:45;45.97;;;28.48;;
52208;SDS011;38507;53.132;6.394;2023-05-07T04:45:10;43.03;;;28.55;;
52208;SDS011;38507;53.132;6.394;2023-05-07T04:47:37;50.80;;;29.45;;
52208;SDS011;38507;53.132;6.394;2023-05-07T04:50:03;45.03;;;28.55;;
52208;SDS011;38507;53.132;6.394;2023-05-07T04:52:30;43.42;;;28.92;;
52208;SDS011;38507;53.132;6.394;2023-05-07T04:54:56;46.35;;;29.48;;
52208;SDS011;38507;53.132;6.394;2023-05-07T04:57:23;42.28;;;26.75;;
52208;SDS011;38507;53.132;6.394;2023-05-07T04:59:49;40.10;;;27.50;;
52208;SDS011;38507;53.132;6.394;2023-05-07T05:02:15;45.22;;;28.48;;
52208;SDS011;38507;53.132;6.394;2023-05-07T05:04:41;40.83;;;28.88;;
52208;SDS011;38507;53.132;6.394;2023-05-07T05:07:06;41.60;;;28.10;;
52208;SDS011;38507;53.132;6.394;2023-05-07T05:09:32;41.63;;;27.60;;
52208;SDS011;38507;53.132;6.394;2023-05-07T05:11:58;39.65;;;25.42;;
52208;SDS011;38507;53.132;6.394;2023-05-07T05:14:24;46.22;;;29.10;;
52208;SDS011;38507;53.132;6.394;2023-05-07T05:16:50;43.10;;;26.13;;
52208;SDS011;38507;53.132;6.394;2023-05-07T05:19:15;41.03;;;27.00;;
52208;SDS011;38507;53.132;6.394;2023-05-07T05:21:41;40.85;;;27.45;;
52208;SDS011;38507;53.132;6.394;2023-05-07T05:24:07;40.35;;;26.95;;
52208;SDS011;38507;53.132;6.394;2023-05-07T05:26:33;37.35;;;26.83;;
52208;SDS011;38507;53.132;6.394;2023-05-07T05:28:58;40.08;;;26.95;;
52208;SDS011;38507;53.132;6.394;2023-05-07T05:31:24;38.95;;;25.80;;
52208;SDS011;38507;53.132;6.394;2023-05-07T05:33:50;37.25;;;25.80;;
52208;SDS011;38507;53.132;6.394;2023-05-07T05:36:16;38.33;;;25.77;;
52208;SDS011;38507;53.132;6.394;2023-05-07T05:38:41;35.70;;;25.30;;
52208;SDS011;38507;53.132;6.394;2023-05-07T05:41:08;36.33;;;25.60;;
52208;SDS011;38507;53.132;6.394;2023-05-07T05:43:34;34.50;;;26.08;;
52208;SDS011;38507;53.132;6.394;2023-05-07T05:45:59;34.60;;;24.50;;
52208;SDS011;38507;53.132;6.394;2023-05-07T05:48:25;35.05;;;23.98;;
52208;SDS011;38507;53.132;6.394;2023-05-07T05:50:51;35.20;;;24.02;;
52208;SDS011;38507;53.132;6.394;2023-05-07T05:53:16;37.08;;;24.52;;
52208;SDS011;38507;53.132;6.394;2023-05-07T05:55:42;37.72;;;24.00;;
52208;SDS011;38507;53.132;6.394;2023-05-07T05:58:08;36.60;;;24.92;;
52208;SDS011;38507;53.132;6.394;2023-05-07T06:00:34;34.80;;;24.83;;
52208;SDS011;38507;53.132;6.394;2023-05-07T06:03:00;36.78;;;24.83;;
52208;SDS011;38507;53.132;6.394;2023-05-07T06:05:26;34.03;;;24.40;;
52208;SDS011;38507;53.132;6.394;2023-05-07T06:07:51;35.28;;;24.10;;
52208;SDS011;38507;53.132;6.394;2023-05-07T06:10:17;30.48;;;23.55;;
52208;SDS011;38507;53.132;6.394;2023-05-07T06:12:43;36.03;;;24.95;;
52208;SDS011;38507;53.132;6.394;2023-05-07T06:15:09;30.52;;;22.85;;
52208;SDS011;38507;53.132;6.394;2023-05-07T06:17:35;29.90;;;23.08;;
52208;SDS011;38507;53.132;6.394;2023-05-07T06:20:01;32.67;;;23.67;;
52208;SDS011;38507;53.132;6.394;2023-05-07T06:22:26;32.50;;;24.02;;
52208;SDS011;38507;53.132;6.394;2023-05-07T06:24:52;32.50;;;23.52;;
52208;SDS011;38507;53.132;6.394;2023-05-07T06:27:18;30.90;;;22.65;;
52208;SDS011;38507;53.132;6.394;2023-05-07T06:29:43;33.15;;;22.33;;
52208;SDS011;38507;53.132;6.394;2023-05-07T06:32:09;31.35;;;22.42;;
52208;SDS011;38507;53.132;6.394;2023-05-07T06:34:36;32.90;;;22.40;;
52208;SDS011;38507;53.132;6.394;2023-05-07T06:37:02;33.58;;;23.83;;
52208;SDS011;38507;53.132;6.394;2023-05-07T06:39:28;29.25;;;22.05;;
52208;SDS011;38507;53.132;6.394;2023-05-07T06:41:53;32.97;;;23.88;;
52208;SDS011;38507;53.132;6.394;2023-05-07T06:44:19;29.63;;;22.65;;
52208;SDS011;38507;53.132;6.394;2023-05-07T06:46:45;34.58;;;23.63;;
52208;SDS011;38507;53.132;6.394;2023-05-07T06:49:12;34.65;;;23.60;;
52208;SDS011;38507;53.132;6.394;2023-05-07T06:51:38;31.65;;;23.05;;
52208;SDS011;38507;53.132;6.394;2023-05-07T06:54:03;32.88;;;22.65;;
52208;SDS011;38507;53.132;6.394;2023-05-07T06:56:29;31.63;;;22.08;;
52208;SDS011;38507;53.132;6.394;2023-05-07T06:58:56;30.10;;;21.92;;
52208;SDS011;38507;53.132;6.394;2023-05-07T07:01:21;29.65;;;21.38;;
52208;SDS011;38507;53.132;6.394;2023-05-07T07:03:47;31.17;;;21.83;;
52208;SDS011;38507;53.132;6.394;2023-05-07T07:06:13;27.70;;;21.85;;
52208;SDS011;38507;53.132;6.394;2023-05-07T07:08:38;31.23;;;21.58;;
52208;SDS011;38507;53.132;6.394;2023-05-07T07:11:04;29.00;;;21.90;;
52208;SDS011;38507;53.132;6.394;2023-05-07T07:13:30;29.15;;;21.88;;
52208;SDS011;38507;53.132;6.394;2023-05-07T07:15:56;36.15;;;22.05;;
52208;SDS011;38507;53.132;6.394;2023-05-07T07:18:22;27.48;;;20.60;;
52208;SDS011;38507;53.132;6.394;2023-05-07T07:20:47;29.85;;;21.77;;
52208;SDS011;38507;53.132;6.394;2023-05-07T07:23:13;28.63;;;21.20;;
52208;SDS011;38507;53.132;6.394;2023-05-07T07:25:39;29.38;;;21.77;;
52208;SDS011;38507;53.132;6.394;2023-05-07T07:28:05;29.63;;;22.63;;
52208;SDS011;38507;53.132;6.394;2023-05-07T07:30:31;27.95;;;21.30;;
52208;SDS011;38507;53.132;6.394;2023-05-07T07:32:56;30.65;;;21.98;;
52208;SDS011;38507;53.132;6.394;2023-05-07T07:35:27;30.02;;;21.45;;
52208;SDS011;38507;53.132;6.394;2023-05-07T07:37:56;29.20;;;21.85;;
52208;SDS011;38507;53.132;6.394;2023-05-07T07:40:22;29.77;;;21.92;;
52208;SDS011;38507;53.132;6.394;2023-05-07T07:42:48;28.13;;;22.08;;
52208;SDS011;38507;53.132;6.394;2023-05-07T07:45:14;30.13;;;22.70;;
52208;SDS011;38507;53.132;6.394;2023-05-07T07:47:40;28.15;;;22.52;;
52208;SDS011;38507;53.132;6.394;2023-05-07T07:50:06;28.75;;;21.45;;
52208;SDS011;38507;53.132;6.394;2023-05-07T07:52:32;29.50;;;22.65;;
52208;SDS011;38507;53.132;6.394;2023-05-07T07:54:58;28.83;;;21.58;;
52208;SDS011;38507;53.132;6.394;2023-05-07T07:57:24;29.95;;;20.95;;
52208;SDS011;38507;53.132;6.394;2023-05-07T07:59:50;28.20;;;22.08;;
52208;SDS011;38507;53.132;6.394;2023-05-07T08:02:16;30.02;;;22.10;;
52208;SDS011;38507;53.132;6.394;2023-05-07T08:04:42;31.48;;;22.92;;
52208;SDS011;38507;53.132;6.394;2023-05-07T08:07:10;28.40;;;21.98;;
52208;SDS011;38507;53.132;6.394;2023-05-07T08:09:37;30.00;;;21.77;;
52208;SDS011;38507;53.132;6.394;2023-05-07T08:12:03;29.60;;;22.23;;
52208;SDS011;38507;53.132;6.394;2023-05-07T08:14:30;31.00;;;22.83;;
52208;SDS011;38507;53.132;6.394;2023-05-07T08:16:55;32.95;;;21.90;;
52208;SDS011;38507;53.132;6.394;2023-05-07T08:19:21;30.88;;;22.25;;
52208;SDS011;38507;53.132;6.394;2023-05-07T08:21:47;31.40;;;22.25;;
52208;SDS011;38507;53.132;6.394;2023-05-07T08:24:13;30.63;;;22.17;;
52208;SDS011;38507;53.132;6.394;2023-05-07T08:26:39;32.40;;;22.95;;
52208;SDS011;38507;53.132;6.394;2023-05-07T08:29:05;30.17;;;22.70;;
52208;SDS011;38507;53.132;6.394;2023-05-07T08:31:31;28.75;;;22.33;;
52208;SDS011;38507;53.132;6.394;2023-05-07T08:33:57;31.33;;;22.80;;
52208;SDS011;38507;53.132;6.394;2023-05-07T08:36:23;31.02;;;23.45;;
52208;SDS011;38507;53.132;6.394;2023-05-07T08:38:49;30.25;;;22.55;;
52208;SDS011;38507;53.132;6.394;2023-05-07T08:41:15;28.88;;;22.88;;
52208;SDS011;38507;53.132;6.394;2023-05-07T08:43:41;33.65;;;23.88;;
52208;SDS011;38507;53.132;6.394;2023-05-07T08:46:10;30.70;;;22.38;;
52208;SDS011;38507;53.132;6.394;2023-05-07T08:48:38;29.50;;;23.50;;
52208;SDS011;38507;53.132;6.394;2023-05-07T08:51:04;31.77;;;23.30;;
52208;SDS011;38507;53.132;6.394;2023-05-07T08:53:30;31.48;;;22.63;;
52208;SDS011;38507;53.132;6.394;2023-05-07T08:55:56;30.27;;;23.02;;
52208;SDS011;38507;53.132;6.394;2023-05-07T08:58:22;32.63;;;23.42;;
52208;SDS011;38507;53.132;6.394;2023-05-07T09:00:47;29.92;;;22.55;;
52208;SDS011;38507;53.132;6.394;2023-05-07T09:03:13;31.98;;;23.27;;
52208;SDS011;38507;53.132;6.394;2023-05-07T09:05:39;31.50;;;24.42;;
52208;SDS011;38507;53.132;6.394;2023-05-07T09:08:06;30.02;;;23.92;;
52208;SDS011;38507;53.132;6.394;2023-05-07T09:10:33;30.17;;;21.95;;
52208;SDS011;38507;53.132;6.394;2023-05-07T09:12:59;31.40;;;23.67;;
52208;SDS011;38507;53.132;6.394;2023-05-07T09:15:25;29.65;;;22.55;;
52208;SDS011;38507;53.132;6.394;2023-05-07T09:17:51;26.80;;;21.27;;
52208;SDS011;38507;53.132;6.394;2023-05-07T09:20:17;27.55;;;21.42;;
52208;SDS011;38507;53.132;6.394;2023-05-07T09:22:43;27.80;;;21.73;;
52208;SDS011;38507;53.132;6.394;2023-05-07T09:25:09;26.27;;;20.38;;
52208;SDS011;38507;53.132;6.394;2023-05-07T09:27:35;27.17;;;20.80;;
52208;SDS011;38507;53.132;6.394;2023-05-07T09:30:04;29.67;;;21.65;;
52208;SDS011;38507;53.132;6.394;2023-05-07T09:32:33;25.95;;;21.13;;
52208;SDS011;38507;53.132;6.394;2023-05-07T09:35:00;27.40;;;20.50;;
52208;SDS011;38507;53.132;6.394;2023-05-07T09:37:26;25.67;;;20.35;;
52208;SDS011;38507;53.132;6.394;2023-05-07T09:39:51;28.10;;;20.55;;
52208;SDS011;38507;53.132;6.394;2023-05-07T09:42:22;27.67;;;21.02;;
52208;SDS011;38507;53.132;6.394;2023-05-07T09:44:49;29.55;;;21.27;;
52208;SDS011;38507;53.132;6.394;2023-05-07T09:47:18;25.85;;;20.27;;
52208;SDS011;38507;53.132;6.394;2023-05-07T09:49:47;24.70;;;19.80;;
52208;SDS011;38507;53.132;6.394;2023-05-07T09:52:13;25.67;;;19.65;;
52208;SDS011;38507;53.132;6.394;2023-05-07T09:54:40;25.92;;;20.15;;
52208;SDS011;38507;53.132;6.394;2023-05-07T09:57:09;23.67;;;18.27;;
52208;SDS011;38507;53.132;6.394;2023-05-07T09:59:37;24.20;;;19.05;;
52208;SDS011;38507;53.132;6.394;2023-05-07T10:02:04;24.63;;;19.40;;
52208;SDS011;38507;53.132;6.394;2023-05-07T10:04:30;21.23;;;17.50;;
52208;SDS011;38507;53.132;6.394;2023-05-07T10:06:56;28.05;;;19.05;;
52208;SDS011;38507;53.132;6.394;2023-05-07T10:09:23;23.77;;;18.00;;
52208;SDS011;38507;53.132;6.394;2023-05-07T10:11:51;23.40;;;18.38;;
52208;SDS011;38507;53.132;6.394;2023-05-07T10:14:19;21.85;;;17.95;;
52208;SDS011;38507;53.132;6.394;2023-05-07T10:16:46;22.20;;;18.17;;
52208;SDS011;38507;53.132;6.394;2023-05-07T10:19:13;24.23;;;17.60;;
52208;SDS011;38507;53.132;6.394;2023-05-07T10:21:42;25.35;;;18.17;;
52208;SDS011;38507;53.132;6.394;2023-05-07T10:24:35;22.67;;;16.90;;
52208;SDS011;38507;53.132;6.394;2023-05-07T10:27:00;23.05;;;17.13;;
52208;SDS011;38507;53.132;6.394;2023-05-07T10:29:37;21.98;;;16.35;;
52208;SDS011;38507;53.132;6.394;2023-05-07T10:35:08;22.48;;;17.35;;
52208;SDS011;38507;53.132;6.394;2023-05-07T10:37:39;21.55;;;16.80;;
52208;SDS011;38507;53.132;6.394;2023-05-07T10:40:05;21.85;;;16.95;;
52208;SDS011;38507;53.132;6.394;2023-05-07T10:42:32;22.38;;;16.77;;
52208;SDS011;38507;53.132;6.394;2023-05-07T10:44:58;22.05;;;16.95;;
52208;SDS011;38507;53.132;6.394;2023-05-07T10:48:00;23.20;;;16.67;;
52208;SDS011;38507;53.132;6.394;2023-05-07T10:50:40;21.15;;;17.00;;
52208;SDS011;38507;53.132;6.394;2023-05-07T10:55:48;24.88;;;17.00;;
52208;SDS011;38507;53.132;6.394;2023-05-07T11:00:47;23.23;;;17.02;;
52208;SDS011;38507;53.132;6.394;2023-05-07T11:03:14;19.30;;;16.23;;
52208;SDS011;38507;53.132;6.394;2023-05-07T11:05:40;20.00;;;15.45;;
52208;SDS011;38507;53.132;6.394;2023-05-07T11:08:07;19.85;;;16.35;;
52208;SDS011;38507;53.132;6.394;2023-05-07T11:10:52;20.02;;;15.38;;
52208;SDS011;38507;53.132;6.394;2023-05-07T11:16:18;19.05;;;15.10;;
52208;SDS011;38507;53.132;6.394;2023-05-07T11:18:49;18.38;;;14.48;;
52208;SDS011;38507;53.132;6.394;2023-05-07T11:24:00;18.38;;;15.55;;
52208;SDS011;38507;53.132;6.394;2023-05-07T11:26:28;19.20;;;15.93;;
52208;SDS011;38507;53.132;6.394;2023-05-07T11:28:56;15.55;;;13.05;;
52208;SDS011;38507;53.132;6.394;2023-05-07T11:31:23;16.63;;;14.82;;
52208;SDS011;38507;53.132;6.394;2023-05-07T11:33:52;17.67;;;15.18;;
52208;SDS011;38507;53.132;6.394;2023-05-07T11:36:19;17.65;;;14.30;;
52208;SDS011;38507;53.132;6.394;2023-05-07T11:38:46;16.83;;;14.82;;
52208;SDS011;38507;53.132;6.394;2023-05-07T11:41:11;17.95;;;14.13;;
52208;SDS011;38507;53.132;6.394;2023-05-07T11:43:37;17.05;;;14.38;;
52208;SDS011;38507;53.132;6.394;2023-05-07T11:46:11;18.45;;;14.32;;
52208;SDS011;38507;53.132;6.394;2023-05-07T11:48:39;18.73;;;14.65;;
52208;SDS011;38507;53.132;6.394;2023-05-07T11:51:06;16.35;;;13.10;;
52208;SDS011;38507;53.132;6.394;2023-05-07T11:53:37;17.05;;;14.57;;
52208;SDS011;38507;53.132;6.394;2023-05-07T11:56:13;17.23;;;14.05;;
52208;SDS011;38507;53.132;6.394;2023-05-07T11:58:41;17.00;;;14.70;;
52208;SDS011;38507;53.132;6.394;2023-05-07T12:01:08;17.45;;;13.98;;
52208;SDS011;38507;53.132;6.394;2023-05-07T12:03:35;16.52;;;13.48;;
52208;SDS011;38507;53.132;6.394;2023-05-07T12:06:07;16.33;;;13.32;;
52208;SDS011;38507;53.132;6.394;2023-05-07T12:08:37;15.55;;;13.55;;
52208;SDS011;38507;53.132;6.394;2023-05-07T12:11:04;17.73;;;14.20;;
52208;SDS011;38507;53.132;6.394;2023-05-07T12:13:33;16.45;;;13.43;;
52208;SDS011;38507;53.132;6.394;2023-05-07T12:15:59;15.18;;;13.20;;
52208;SDS011;38507;53.132;6.394;2023-05-07T12:18:26;15.68;;;14.02;;
52208;SDS011;38507;53.132;6.394;2023-05-07T12:20:52;14.77;;;12.43;;
52208;SDS011;38507;53.132;6.394;2023-05-07T12:23:18;15.65;;;13.27;;
52208;SDS011;38507;53.132;6.394;2023-05-07T12:25:45;14.82;;;12.82;;
52208;SDS011;38507;53.132;6.394;2023-05-07T12:28:17;16.33;;;13.18;;
52208;SDS011;38507;53.132;6.394;2023-05-07T12:30:44;17.30;;;12.77;;
52208;SDS011;38507;53.132;6.394;2023-05-07T12:33:12;16.60;;;12.43;;
52208;SDS011;38507;53.132;6.394;2023-05-07T12:35:42;14.38;;;12.82;;
52208;SDS011;38507;53.132;6.394;2023-05-07T12:38:09;17.17;;;12.90;;
52208;SDS011;38507;53.132;6.394;2023-05-07T12:40:37;13.95;;;12.50;;
52208;SDS011;38507;53.132;6.394;2023-05-07T12:43:07;17.38;;;13.05;;
52208;SDS011;38507;53.132;6.394;2023-05-07T12:45:41;13.35;;;11.95;;
52208;SDS011;38507;53.132;6.394;2023-05-07T12:48:09;13.93;;;12.43;;
52208;SDS011;38507;53.132;6.394;2023-05-07T12:50:36;15.73;;;13.07;;
52208;SDS011;38507;53.132;6.394;2023-05-07T12:53:03;14.07;;;12.18;;
52208;SDS011;38507;53.132;6.394;2023-05-07T12:55:40;13.77;;;12.38;;
52208;SDS011;38507;53.132;6.394;2023-05-07T13:00:59;14.43;;;12.93;;
52208;SDS011;38507;53.132;6.394;2023-05-07T13:03:29;14.45;;;12.57;;
52208;SDS011;38507;53.132;6.394;2023-05-07T13:06:00;13.75;;;12.25;;
52208;SDS011;38507;53.132;6.394;2023-05-07T13:08:31;12.70;;;11.25;;
52208;SDS011;38507;53.132;6.394;2023-05-07T13:10:59;13.88;;;12.15;;
52208;SDS011;38507;53.132;6.394;2023-05-07T13:13:28;13.63;;;12.18;;
52208;SDS011;38507;53.132;6.394;2023-05-07T13:15:55;13.50;;;11.43;;
52208;SDS011;38507;53.132;6.394;2023-05-07T13:18:20;14.02;;;12.55;;
52208;SDS011;38507;53.132;6.394;2023-05-07T13:20:46;13.90;;;12.35;;
52208;SDS011;38507;53.132;6.394;2023-05-07T13:23:12;14.00;;;11.88;;
52208;SDS011;38507;53.132;6.394;2023-05-07T13:25:37;13.93;;;11.68;;
52208;SDS011;38507;53.132;6.394;2023-05-07T13:28:03;12.82;;;10.95;;
52208;SDS011;38507;53.132;6.394;2023-05-07T13:30:29;15.43;;;11.38;;
52208;SDS011;38507;53.132;6.394;2023-05-07T13:32:55;14.40;;;12.40;;
52208;SDS011;38507;53.132;6.394;2023-05-07T13:35:21;15.63;;;11.07;;
52208;SDS011;38507;53.132;6.394;2023-05-07T13:37:47;16.55;;;10.70;;
52208;SDS011;38507;53.132;6.394;2023-05-07T13:40:17;14.18;;;12.10;;
52208;SDS011;38507;53.132;6.394;2023-05-07T13:42:43;15.60;;;11.85;;
52208;SDS011;38507;53.132;6.394;2023-05-07T13:45:09;12.43;;;11.00;;
52208;SDS011;38507;53.132;6.394;2023-05-07T13:47:34;12.27;;;10.82;;
52208;SDS011;38507;53.132;6.394;2023-05-07T13:50:00;15.27;;;10.88;;
52208;SDS011;38507;53.132;6.394;2023-05-07T13:52:26;12.05;;;10.07;;
52208;SDS011;38507;53.132;6.394;2023-05-07T13:54:51;12.80;;;11.45;;
52208;SDS011;38507;53.132;6.394;2023-05-07T13:57:17;12.38;;;10.15;;
52208;SDS011;38507;53.132;6.394;2023-05-07T13:59:43;13.07;;;11.75;;
52208;SDS011;38507;53.132;6.394;2023-05-07T14:02:09;13.40;;;12.00;;
52208;SDS011;38507;53.132;6.394;2023-05-07T14:04:35;12.98;;;11.00;;
52208;SDS011;38507;53.132;6.394;2023-05-07T14:07:02;12.10;;;10.82;;
52208;SDS011;38507;53.132;6.394;2023-05-07T14:09:28;14.98;;;11.27;;
52208;SDS011;38507;53.132;6.394;2023-05-07T14:11:54;15.10;;;11.27;;
52208;SDS011;38507;53.132;6.394;2023-05-07T14:14:20;11.98;;;10.77;;
52208;SDS011;38507;53.132;6.394;2023-05-07T14:16:45;12.75;;;11.18;;
52208;SDS011;38507;53.132;6.394;2023-05-07T14:19:11;13.70;;;11.35;;
52208;SDS011;38507;53.132;6.394;2023-05-07T14:21:37;12.10;;;10.90;;
52208;SDS011;38507;53.132;6.394;2023-05-07T14:24:03;12.10;;;10.57;;
52208;SDS011;38507;53.132;6.394;2023-05-07T14:26:29;13.77;;;10.60;;
52208;SDS011;38507;53.132;6.394;2023-05-07T14:28:55;13.02;;;10.10;;
52208;SDS011;38507;53.132;6.394;2023-05-07T14:31:23;12.98;;;11.20;;
52208;SDS011;38507;53.132;6.394;2023-05-07T14:33:49;13.23;;;10.48;;
52208;SDS011;38507;53.132;6.394;2023-05-07T14:36:15;12.13;;;10.85;;